Time;durP1;ratioP1;P1;durP2;ratioP2;P2;SDS_P1;SDS_P2;PMS_P1;PMS_P2;Temp;Humidity;BMP_temperature;BMP_pressure;BME280_temperature;BME280_humidity;BME280_pressure;Samples;Min_cycle;Max_cycle;Signal;HPM_P1;HPM_P2
2022/07/04 04:30:38;;;;;;;;;1.00;1.00;;;;;18.61;53.71;101794.66;5087849;27;45488;-71
2022/07/04 04:33:03;;;;;;;;;3.00;2.00;;;;;18.50;53.79;101792.59;5016282;28;45331;-71
2022/07/04 04:35:29;;;;;;;;;1.00;1.00;;;;;18.49;54.15;101798.97;5016506;28;45479;-70
2022/07/04 04:37:54;;;;;;;;;1.00;1.00;;;;;18.48;53.97;101795.38;5016749;28;45900;-71
2022/07/04 04:40:20;;;;;;;;;1.00;1.00;;;;;18.62;54.10;101794.59;5016536;28;45316;-69
2022/07/04 04:42:45;;;;;;;;;1.00;1.00;;;;;18.75;53.63;101792.81;5016332;28;47082;-70
2022/07/04 04:45:10;;;;;;;;;1.00;1.00;;;;;18.73;53.77;101785.72;5003486;28;45313;-71
2022/07/04 04:47:36;;;;;;;;;1.00;1.00;;;;;18.77;53.09;101799.03;4996557;28;45345;-69
2022/07/04 04:50:01;;;;;;;;;1.75;1.75;;;;;18.63;53.83;101784.59;4996861;28;45512;-70
2022/07/04 04:52:26;;;;;;;;;1.00;1.00;;;;;18.59;53.95;101794.75;4996532;28;45310;-71
2022/07/04 04:54:52;;;;;;;;;1.00;1.00;;;;;18.58;54.11;101784.00;4996483;28;45258;-71
2022/07/04 04:57:17;;;;;;;;;1.00;1.00;;;;;18.61;53.98;101808.25;4996694;28;45471;-71
2022/07/04 04:59:43;;;;;;;;;2.00;2.00;;;;;18.60;53.77;101804.66;4996329;28;45349;-70
2022/07/04 05:02:08;;;;;;;;;2.00;2.00;;;;;18.58;53.99;101790.28;4996123;28;45382;-71
2022/07/04 05:04:33;;;;;;;;;1.00;1.00;;;;;18.64;54.04;101786.31;4996532;28;45313;-70
2022/07/04 05:06:59;;;;;;;;;2.00;2.00;;;;;18.68;53.70;101793.31;4996177;28;45500;-71
2022/07/04 05:09:24;;;;;;;;;0.50;0.50;;;;;18.70;53.65;101783.22;4996330;28;45468;-72
2022/07/04 05:11:50;;;;;;;;;3.50;2.00;;;;;18.85;53.28;101796.72;4995995;28;46184;-70
2022/07/04 05:14:15;;;;;;;;;3.00;3.00;;;;;18.84;53.18;101794.09;4996151;28;45251;-70
2022/07/04 05:16:41;;;;;;;;;2.25;2.25;;;;;18.72;53.76;101784.84;4995926;28;45351;-72
2022/07/04 05:19:06;;;;;;;;;1.25;1.25;;;;;18.68;53.95;101796.03;5014390;28;45275;-71
2022/07/04 05:21:32;;;;;;;;;2.00;2.00;;;;;18.57;54.29;101795.81;4997954;28;46124;-72
2022/07/04 05:23:57;;;;;;;;;1.00;1.00;;;;;18.43;54.61;101788.50;4995973;28;45259;-72
2022/07/04 05:26:23;;;;;;;;;2.50;1.00;;;;;18.38;54.63;101783.34;4995966;28;45356;-71
2022/07/04 05:28:49;;;;;;;;;1.75;1.75;;;;;18.41;54.77;101794.03;4996176;28;45219;-72
2022/07/04 05:31:14;;;;;;;;;2.00;2.00;;;;;18.29;55.04;101785.78;5008379;28;45515;-76
2022/07/04 05:33:40;;;;;;;;;1.00;1.00;;;;;18.33;55.17;101792.75;5035796;28;45359;-78
2022/07/04 05:36:06;;;;;;;;;1.00;1.00;;;;;18.32;55.28;101789.16;5035692;28;45392;-79
2022/07/04 05:38:31;;;;;;;;;0.75;0.75;;;;;18.32;55.12;101791.88;5035524;28;45598;-73
2022/07/04 05:40:57;;;;;;;;;1.25;1.25;;;;;18.26;55.45;101792.25;5035355;28;45432;-74
2022/07/04 05:43:22;;;;;;;;;1.00;1.00;;;;;18.22;55.64;101800.66;5036306;28;45378;-74
2022/07/04 05:45:48;;;;;;;;;2.50;2.50;;;;;18.20;55.89;101810.78;5035840;28;45526;-77
2022/07/04 05:48:14;;;;;;;;;2.00;2.00;;;;;18.13;55.87;101793.97;5001659;28;45906;-72
2022/07/04 05:50:39;;;;;;;;;1.00;1.00;;;;;18.16;55.63;101810.06;5036192;28;46605;-70
2022/07/04 05:53:05;;;;;;;;;2.00;1.00;;;;;18.20;56.01;101806.22;5033806;28;45699;-71
2022/07/04 05:55:30;;;;;;;;;1.75;1.75;;;;;18.27;55.71;101812.16;5034623;28;45363;-71
2022/07/04 05:57:56;;;;;;;;;1.00;1.00;;;;;18.41;55.45;101795.88;5037902;28;45297;-72
2022/07/04 06:00:21;;;;;;;;;2.00;2.00;;;;;18.54;55.38;101800.44;5021991;28;46205;-72
2022/07/04 06:02:47;;;;;;;;;2.00;2.00;;;;;18.60;54.79;101798.34;5035519;28;45257;-71
2022/07/04 06:05:12;;;;;;;;;2.50;2.50;;;;;18.57;54.55;101793.97;5029799;28;45167;-72
2022/07/04 06:07:38;;;;;;;;;1.00;1.00;;;;;18.71;54.79;101814.88;5031374;28;45261;-71
2022/07/04 06:10:05;;;;;;;;;2.00;2.00;;;;;18.73;55.04;101807.47;5026815;28;45493;-72
2022/07/04 06:12:30;;;;;;;;;4.25;2.75;;;;;18.62;54.72;101797.28;5034791;28;45362;-70
2022/07/04 06:14:55;;;;;;;;;2.00;2.00;;;;;18.71;54.79;101806.72;5034707;28;45507;-72
2022/07/04 06:17:21;;;;;;;;;3.75;2.00;;;;;18.70;54.82;101814.00;5034405;28;45538;-72
2022/07/04 06:19:46;;;;;;;;;3.75;3.00;;;;;18.68;54.67;101813.19;5034299;28;46105;-72
2022/07/04 06:22:12;;;;;;;;;2.00;2.00;;;;;18.74;55.00;101801.06;5034783;28;45351;-73
2022/07/04 06:24:38;;;;;;;;;2.75;2.00;;;;;18.77;54.42;101804.47;5034536;28;45355;-73
2022/07/04 06:27:04;;;;;;;;;3.00;3.00;;;;;18.77;54.96;101809.03;5033886;28;45577;-73
2022/07/04 06:29:29;;;;;;;;;2.50;2.50;;;;;18.81;54.51;101806.00;5034123;28;45979;-71
2022/07/04 06:31:54;;;;;;;;;2.00;2.00;;;;;18.80;54.05;101809.69;5034722;28;45293;-72
2022/07/04 06:37:04;;;;;;;;;3.00;3.00;;;;;18.76;54.36;101801.84;5034798;28;45300;-69
2022/07/04 06:39:29;;;;;;;;;4.00;3.00;;;;;18.79;54.41;101799.81;5034508;28;45380;-69
2022/07/04 06:41:54;;;;;;;;;2.00;2.00;;;;;18.85;53.90;101807.56;5034319;28;45448;-70
2022/07/04 06:44:20;;;;;;;;;2.25;2.25;;;;;18.76;54.59;101804.56;5047219;28;45167;-72
2022/07/04 06:46:46;;;;;;;;;2.00;2.00;;;;;18.84;54.43;101807.66;5029919;28;45460;-71
2022/07/04 06:49:11;;;;;;;;;3.00;3.00;;;;;18.85;54.26;101801.28;5025441;28;45316;-71
2022/07/04 06:51:37;;;;;;;;;5.00;3.25;;;;;18.85;54.19;101796.72;5032869;28;45598;-72
2022/07/04 06:54:02;;;;;;;;;3.50;3.50;;;;;18.94;54.26;101817.00;5033777;28;45292;-71
2022/07/04 06:56:28;;;;;;;;;3.75;3.75;;;;;18.92;54.15;101815.34;5033279;28;45380;-72
2022/07/04 06:58:53;;;;;;;;;3.00;3.00;;;;;18.94;53.78;101817.00;5033124;28;45977;-72
2022/07/04 07:01:19;;;;;;;;;3.50;2.00;;;;;19.01;53.83;101821.06;5033437;28;45437;-72
2022/07/04 07:03:44;;;;;;;;;2.00;2.00;;;;;19.05;53.68;101819.03;5033982;28;45595;-76
2022/07/04 07:06:10;;;;;;;;;2.25;2.25;;;;;19.01;53.35;101821.06;5032808;28;45439;-72
2022/07/04 07:08:35;;;;;;;;;4.25;2.50;;;;;19.03;53.31;101829.13;5017147;28;46856;-72
2022/07/04 07:11:12;;;;;;;;;2.25;2.25;;;;;19.05;53.43;101829.91;5034159;28;45356;-72
2022/07/04 07:13:39;;;;;;;;;2.00;2.00;;;;;19.07;52.92;101830.66;5020889;28;45420;-72
2022/07/04 07:16:04;;;;;;;;;2.00;2.00;;;;;19.10;52.85;101825.03;5032762;28;45340;-72
2022/07/04 07:18:29;;;;;;;;;3.50;2.00;;;;;19.07;53.07;101808.91;5033755;28;46090;-72
2022/07/04 07:20:55;;;;;;;;;3.00;3.00;;;;;19.15;52.78;101815.59;5033876;28;45237;-72
2022/07/04 07:23:20;;;;;;;;;2.00;2.00;;;;;19.32;52.77;101832.66;5033853;28;45315;-72
2022/07/04 07:25:45;;;;;;;;;3.00;3.00;;;;;19.20;52.12;101805.31;5033657;28;45362;-72
2022/07/04 07:28:11;;;;;;;;;2.75;2.75;;;;;19.39;52.21;101836.75;5033394;28;45959;-73
2022/07/04 07:30:36;;;;;;;;;1.50;1.50;;;;;19.38;51.13;101829.56;5033641;28;45364;-73
2022/07/04 07:33:01;;;;;;;;;1.25;1.25;;;;;19.34;50.94;101833.44;5033777;28;45506;-73
2022/07/04 07:35:27;;;;;;;;;1.75;1.75;;;;;19.28;51.22;101837.44;5033597;28;45452;-72
2022/07/04 07:37:52;;;;;;;;;2.50;1.00;;;;;19.31;50.04;101830.94;5033691;28;45920;-73
2022/07/04 07:40:18;;;;;;;;;3.50;1.75;;;;;19.25;49.98;101824.03;5037189;28;45348;-71
2022/07/04 07:42:43;;;;;;;;;3.50;2.00;;;;;19.34;51.07;101820.72;5039980;28;45154;-73
2022/07/04 07:45:08;;;;;;;;;0.75;0.75;;;;;19.42;50.53;101820.19;5037290;28;45300;-73
2022/07/04 07:47:34;;;;;;;;;1.75;1.75;;;;;19.42;50.12;101803.88;5037083;28;46255;-72
2022/07/04 07:49:59;;;;;;;;;1.50;1.50;;;;;19.65;50.18;101822.31;5036622;28;45371;-73
2022/07/04 07:52:24;;;;;;;;;1.00;1.00;;;;;19.75;49.28;101815.28;5036369;28;45699;-74
2022/07/04 07:54:50;;;;;;;;;1.00;1.00;;;;;19.84;48.43;101811.94;5036253;28;45551;-72
2022/07/04 07:57:15;;;;;;;;;2.25;1.50;;;;;19.95;47.99;101814.81;5036530;28;46009;-73
2022/07/04 07:59:41;;;;;;;;;1.00;1.00;;;;;20.04;48.94;101810.59;5036488;28;45395;-72
2022/07/04 08:02:06;;;;;;;;;1.00;1.00;;;;;20.15;48.71;101816.19;5036529;28;45407;-72
2022/07/04 08:04:35;;;;;;;;;1.00;1.00;;;;;20.22;48.75;101812.03;5036793;28;45510;-72
2022/07/04 08:07:03;;;;;;;;;1.00;1.00;;;;;20.32;48.45;101815.00;5036914;28;45756;-72
2022/07/04 08:09:28;;;;;;;;;2.50;1.75;;;;;20.35;48.15;101809.34;5036332;28;45487;-72
2022/07/04 08:11:53;;;;;;;;;2.50;2.00;;;;;20.36;48.06;101811.97;5036384;28;45434;-73
2022/07/04 08:14:19;;;;;;;;;1.00;1.00;;;;;20.28;47.70;101803.44;5036278;28;45563;-74
2022/07/04 08:16:44;;;;;;;;;2.75;2.00;;;;;20.34;48.09;101807.59;5036587;28;45193;-72
2022/07/04 08:19:09;;;;;;;;;0.50;0.50;;;;;20.40;47.71;101799.03;5036588;28;45482;-73
2022/07/04 08:21:35;;;;;;;;;0.50;0.50;;;;;20.53;47.26;101808.06;5036719;28;45504;-73
2022/07/04 08:24:00;;;;;;;;;1.00;1.00;;;;;20.55;47.56;101797.94;5036185;28;45321;-72
2022/07/04 08:26:26;;;;;;;;;1.50;1.50;;;;;20.61;46.96;101792.03;5036197;28;46332;-72
2022/07/04 08:28:52;;;;;;;;;1.00;1.00;;;;;20.77;46.54;101795.41;5036248;28;45358;-73
2022/07/04 08:31:18;;;;;;;;;2.00;1.25;;;;;20.81;46.53;101792.47;5036298;28;45359;-73
2022/07/04 08:33:44;;;;;;;;;1.00;1.00;;;;;20.85;45.67;101793.97;5036118;28;45425;-73
2022/07/04 08:36:09;;;;;;;;;2.00;2.00;;;;;20.85;46.17;101797.59;5035938;28;45365;-71
2022/07/04 08:38:35;;;;;;;;;3.25;2.50;;;;;20.86;45.63;101793.88;5036346;28;45365;-73
2022/07/04 08:41:03;;;;;;;;;2.25;1.50;;;;;20.88;45.43;101794.66;5036616;28;45486;-73
2022/07/04 08:43:33;;;;;;;;;1.00;1.00;;;;;20.76;45.24;101774.59;5036346;28;45472;-74
2022/07/04 08:45:59;;;;;;;;;0.75;0.75;;;;;20.87;46.04;101790.19;5035538;28;46159;-73
2022/07/04 08:48:28;;;;;;;;;1.00;1.00;;;;;20.93;45.97;101789.72;5035877;28;45420;-74
2022/07/04 08:51:03;;;;;;;;;0.00;0.00;;;;;20.97;45.09;101785.81;5035559;28;45274;-73
2022/07/04 08:53:33;;;;;;;;;2.25;1.25;;;;;20.97;45.48;101787.66;5035680;28;45281;-73
2022/07/04 08:58:45;;;;;;;;;2.25;1.75;;;;;20.96;45.36;101775.00;5035638;28;45459;-73
2022/07/04 09:01:14;;;;;;;;;3.50;1.75;;;;;20.94;45.53;101782.41;5035514;28;45463;-74
2022/07/04 09:03:42;;;;;;;;;1.00;1.00;;;;;20.88;45.53;101780.16;5035461;28;45380;-74
2022/07/04 09:06:07;;;;;;;;;1.25;1.25;;;;;20.81;45.87;101766.09;5035630;28;47318;-72
2022/07/04 09:08:33;;;;;;;;;1.50;1.50;;;;;20.89;46.36;101773.72;5035839;28;45318;-74
2022/07/04 09:10:59;;;;;;;;;1.25;1.25;;;;;20.85;45.91;101755.81;5035635;28;45360;-73
2022/07/04 09:13:25;;;;;;;;;2.00;2.00;;;;;21.00;45.62;101771.09;5035246;28;45325;-73
2022/07/04 09:15:51;;;;;;;;;1.00;1.00;;;;;21.04;45.51;101778.03;5035245;28;45364;-75
2022/07/04 09:18:24;;;;;;;;;2.00;2.00;;;;;21.09;45.64;101776.75;5035285;28;45372;-72
2022/07/04 09:20:51;;;;;;;;;4.75;2.00;;;;;21.13;45.47;101767.34;5035727;28;45429;-79
2022/07/04 09:23:25;;;;;;;;;2.00;2.00;;;;;21.22;44.50;101782.19;5017450;28;45648;-74
2022/07/04 09:26:06;;;;;;;;;1.50;1.50;;;;;21.24;44.53;101776.63;5034936;28;45597;-72
2022/07/04 09:28:32;;;;;;;;;2.00;2.00;;;;;21.30;44.71;101773.41;5035702;28;45340;-74
2022/07/04 09:30:58;;;;;;;;;1.00;1.00;;;;;21.23;44.63;101748.47;5035410;28;45865;-74
2022/07/04 09:33:44;;;;;;;;;1.00;1.00;;;;;21.37;43.78;101761.94;5035609;28;45560;-72
2022/07/04 09:36:17;;;;;;;;;0.50;0.50;;;;;21.33;43.22;101767.75;5035698;28;46433;-72
2022/07/04 09:38:43;;;;;;;;;1.50;0.50;;;;;21.28;43.39;101756.28;5035768;28;45455;-74
2022/07/04 09:41:34;;;;;;;;;0.75;0.75;;;;;21.33;43.86;101762.28;5035434;28;45297;-72
2022/07/04 09:44:01;;;;;;;;;2.00;2.00;;;;;21.34;43.76;101761.31;5035001;28;45577;-73
2022/07/04 09:46:26;;;;;;;;;1.25;0.75;;;;;21.36;43.47;101765.63;5035130;28;45512;-73
2022/07/04 09:48:52;;;;;;;;;2.25;1.50;;;;;21.38;43.58;101760.06;5035102;28;45335;-73
2022/07/04 09:51:37;;;;;;;;;1.75;1.75;;;;;21.37;43.21;101766.50;5035364;28;45326;-73
2022/07/04 09:54:15;;;;;;;;;1.50;1.00;;;;;21.40;43.50;101775.34;5034724;28;45529;-74
2022/07/04 09:56:42;;;;;;;;;1.00;1.00;;;;;21.44;43.29;101771.41;5034742;28;45993;-73
2022/07/04 09:59:07;;;;;;;;;1.00;1.00;;;;;21.41;42.66;101760.72;5034954;28;45480;-74
2022/07/04 10:01:33;;;;;;;;;1.25;1.25;;;;;21.44;42.83;101748.69;5035018;28;45591;-77
2022/07/04 10:03:59;;;;;;;;;1.00;1.00;;;;;21.60;41.86;101773.88;5034595;28;46214;-72
2022/07/04 10:06:25;;;;;;;;;1.00;1.00;;;;;21.59;41.47;101763.06;5034592;28;46119;-73
2022/07/04 10:08:51;;;;;;;;;1.00;0.25;;;;;21.61;41.60;101772.84;5017211;28;45472;-73
2022/07/04 10:11:18;;;;;;;;;0.25;0.25;;;;;21.58;40.87;101772.22;5034877;28;45435;-73
2022/07/04 10:13:43;;;;;;;;;0.00;0.00;;;;;21.60;40.70;101765.69;5034973;28;45318;-73
2022/07/04 10:16:10;;;;;;;;;0.00;0.00;;;;;21.45;39.94;101737.66;5034704;28;45499;-73
2022/07/04 10:18:36;;;;;;;;;0.00;0.00;;;;;21.56;40.65;101755.97;5034905;28;45284;-74
2022/07/04 10:21:01;;;;;;;;;1.25;1.25;;;;;21.49;41.21;101731.00;5034911;28;45452;-73
2022/07/04 10:23:31;;;;;;;;;1.00;1.00;;;;;21.65;41.60;101752.53;5034822;28;45384;-73
2022/07/04 10:25:57;;;;;;;;;1.00;1.00;;;;;21.72;41.10;101755.66;5034744;28;46248;-74
2022/07/04 10:28:23;;;;;;;;;0.50;0.50;;;;;21.77;41.19;101758.94;5034338;28;45281;-72
2022/07/04 10:30:52;;;;;;;;;4.00;1.00;;;;;21.80;41.15;101759.53;5034366;28;45348;-72
2022/07/04 10:33:22;;;;;;;;;1.75;1.00;;;;;21.79;39.96;101749.63;5034740;28;45362;-73
2022/07/04 10:35:57;;;;;;;;;1.50;0.25;;;;;21.79;40.75;101754.19;5035353;28;46209;-74
2022/07/04 10:38:31;;;;;;;;;0.50;0.50;;;;;21.83;41.25;101747.53;5034371;28;45320;-73
2022/07/04 10:40:59;;;;;;;;;2.00;1.00;;;;;21.75;41.10;101731.75;5034451;28;45415;-73
2022/07/04 10:43:30;;;;;;;;;1.00;1.00;;;;;21.93;40.38;101745.84;5034470;28;45519;-73
2022/07/04 10:45:55;;;;;;;;;1.00;1.00;;;;;21.85;40.26;101735.50;5034053;28;46386;-74
2022/07/04 10:48:22;;;;;;;;;1.00;1.00;;;;;22.00;40.36;101758.06;5034270;28;45349;-73
2022/07/04 10:51:01;;;;;;;;;1.50;1.50;;;;;22.05;40.15;101753.09;5034324;28;45442;-73
2022/07/04 10:53:27;;;;;;;;;1.25;1.00;;;;;22.08;40.38;101752.00;5033862;28;45483;-73
2022/07/04 10:55:53;;;;;;;;;1.00;1.00;;;;;22.10;39.46;101748.16;5034377;28;46299;-73
2022/07/04 10:58:42;;;;;;;;;1.00;1.00;;;;;22.11;38.74;101744.44;5033873;28;45482;-74
2022/07/04 11:01:11;;;;;;;;;1.00;1.00;;;;;22.22;39.23;101746.31;5034532;28;45454;-72
2022/07/04 11:03:48;;;;;;;;;1.00;1.00;;;;;22.22;38.93;101732.63;5033840;28;45593;-73
2022/07/04 11:06:32;;;;;;;;;0.00;0.00;;;;;22.36;38.79;101737.91;5033957;28;46050;-73
2022/07/04 11:09:12;;;;;;;;;2.25;1.25;;;;;22.44;39.30;101740.91;5034141;28;45464;-73
2022/07/04 11:12:01;;;;;;;;;2.00;2.00;;;;;22.49;38.66;101737.78;5033912;28;45343;-74
2022/07/04 11:14:40;;;;;;;;;3.00;1.00;;;;;22.55;38.62;101737.28;5015236;28;45561;-75
2022/07/04 11:17:08;;;;;;;;;1.00;1.00;;;;;22.55;37.95;101732.69;5016146;28;47215;-73
2022/07/04 11:19:35;;;;;;;;;4.00;2.00;;;;;22.51;38.48;101733.94;5033612;28;45420;-74
2022/07/04 11:22:01;;;;;;;;;1.00;1.00;;;;;22.59;38.63;101733.31;5034109;28;45486;-74
2022/07/04 11:24:27;;;;;;;;;1.00;1.00;;;;;22.64;38.57;101733.81;5033660;28;45644;-74
2022/07/04 11:26:53;;;;;;;;;1.00;1.00;;;;;22.70;39.24;101740.66;5034048;28;45297;-73
2022/07/04 11:29:19;;;;;;;;;2.00;2.00;;;;;22.74;38.83;101728.47;5033797;28;45171;-72
2022/07/04 11:31:48;;;;;;;;;3.00;1.00;;;;;22.82;38.88;101724.13;4996458;28;45580;-73
2022/07/04 11:34:14;;;;;;;;;0.50;0.50;;;;;22.86;38.18;101717.44;5013795;28;45249;-75
2022/07/04 11:36:41;;;;;;;;;2.00;2.00;;;;;22.98;37.62;101724.63;5014084;28;45346;-73
2022/07/04 11:39:09;;;;;;;;;1.00;1.00;;;;;23.06;37.69;101721.25;5013827;28;45474;-70
2022/07/04 11:47:16;;;;;;;;;2.75;1.00;;;;;23.29;36.96;101714.75;5013635;28;45428;-75
2022/07/04 11:49:48;;;;;;;;;2.00;2.00;;;;;23.20;37.89;101693.63;5013726;28;45507;-75
2022/07/04 11:52:15;;;;;;;;;1.50;1.50;;;;;23.42;37.64;101702.75;5013841;28;45380;-74
2022/07/04 11:54:42;;;;;;;;;2.00;2.00;;;;;23.42;36.88;101691.81;5013561;28;45443;-75
2022/07/04 11:57:19;;;;;;;;;2.00;2.00;;;;;23.59;37.02;101710.44;5012066;28;46211;-74
2022/07/04 11:59:52;;;;;;;;;0.50;0.50;;;;;23.63;37.08;101690.88;5013502;28;45469;-73
2022/07/04 12:02:18;;;;;;;;;0.75;0.75;;;;;23.70;36.90;101692.09;5005559;28;45616;-71
2022/07/04 12:04:43;;;;;;;;;2.50;2.00;;;;;23.72;36.88;101683.75;4999401;28;45416;-70
2022/07/04 12:07:17;;;;;;;;;2.00;2.00;;;;;23.73;36.24;101675.38;5013657;28;46158;-72
2022/07/04 12:09:44;;;;;;;;;1.75;1.75;;;;;23.87;36.53;101687.03;4998699;28;45520;-72
2022/07/04 12:12:11;;;;;;;;;2.50;1.00;;;;;23.92;36.70;101688.34;5008267;28;45455;-71
2022/07/04 12:14:37;;;;;;;;;0.50;0.50;;;;;23.96;36.75;101687.09;4993245;28;45344;-71
2022/07/04 12:17:09;;;;;;;;;1.25;1.25;;;;;24.03;36.37;101681.94;4993456;28;45192;-72
2022/07/04 12:19:34;;;;;;;;;3.25;1.50;;;;;24.07;36.41;101665.09;4995590;28;45313;-71
2022/07/04 12:22:00;;;;;;;;;2.00;2.00;;;;;24.13;35.84;101663.69;5013184;28;45532;-73
2022/07/04 12:24:38;;;;;;;;;1.25;1.25;;;;;24.30;36.11;101679.56;5012977;28;45186;-73
2022/07/04 12:27:03;;;;;;;;;1.75;1.75;;;;;24.40;35.25;101661.28;5027201;28;45232;-72
2022/07/04 12:29:29;;;;;;;;;0.50;0.50;;;;;24.47;35.79;101662.47;5036411;28;45239;-72
2022/07/04 12:31:54;;;;;;;;;2.50;1.75;;;;;24.51;36.03;101663.03;5018562;28;45772;-73
2022/07/04 12:34:20;;;;;;;;;1.50;1.50;;;;;24.64;34.75;101669.16;5018432;28;45867;-72
2022/07/04 12:36:54;;;;;;;;;2.00;1.75;;;;;24.64;35.07;101644.50;5036121;28;46593;-71
2022/07/04 12:39:34;;;;;;;;;1.25;1.25;;;;;24.78;34.42;101646.81;5036584;28;45440;-72
2022/07/04 12:42:19;;;;;;;;;2.50;1.50;;;;;24.83;34.31;101665.63;5036098;28;45306;-72
2022/07/04 12:44:48;;;;;;;;;1.25;1.25;;;;;24.97;33.92;101662.50;5035809;28;45360;-70
2022/07/04 12:47:14;;;;;;;;;1.50;1.50;;;;;24.97;33.42;101651.53;5035884;28;45290;-72
2022/07/04 12:49:43;;;;;;;;;2.75;1.00;;;;;25.01;33.95;101644.72;5030788;28;45336;-75
2022/07/04 12:52:11;;;;;;;;;2.75;2.75;;;;;25.06;34.24;101653.44;5035890;28;45387;-74
2022/07/04 12:54:38;;;;;;;;;1.50;1.50;;;;;25.09;34.04;101639.44;5036159;28;45452;-74
2022/07/04 12:57:10;;;;;;;;;1.00;1.00;;;;;25.27;32.77;101650.53;5018515;28;45388;-73
2022/07/04 12:59:36;;;;;;;;;1.50;1.50;;;;;25.33;31.41;101636.28;5023368;28;45425;-73
2022/07/04 13:02:01;;;;;;;;;1.00;1.00;;;;;25.38;32.51;101636.69;5033841;28;45515;-73
2022/07/04 13:04:27;;;;;;;;;1.00;1.00;;;;;25.44;31.31;101632.50;5024143;28;45556;-74
2022/07/04 13:06:52;;;;;;;;;0.00;0.00;;;;;25.33;30.46;101619.78;5028570;28;46138;-75
2022/07/04 13:09:18;;;;;;;;;2.00;0.75;;;;;25.52;31.53;101628.00;5027356;28;45353;-75
2022/07/04 13:14:27;;;;;;;;;0.75;0.75;;;;;25.81;32.11;101624.41;5035316;28;45411;-74
2022/07/04 13:16:53;;;;;;;;;1.25;1.25;;;;;25.93;31.91;101606.75;5035505;28;45861;-74
2022/07/04 13:19:18;;;;;;;;;0.75;0.75;;;;;26.16;32.64;101626.47;5020529;28;45356;-73
2022/07/04 13:21:44;;;;;;;;;3.50;2.50;;;;;26.30;31.43;101624.13;5035978;28;45413;-74
2022/07/04 13:24:09;;;;;;;;;1.75;1.75;;;;;26.24;31.74;101599.97;5035412;28;45475;-72
2022/07/04 13:26:36;;;;;;;;;3.00;2.00;;;;;26.38;31.96;101618.75;5033643;28;45470;-73
2022/07/04 13:29:01;;;;;;;;;1.00;1.00;;;;;26.23;31.78;101583.63;5035467;28;45351;-73
2022/07/04 13:31:27;;;;;;;;;1.00;1.00;;;;;26.42;30.29;101611.06;5035624;28;45521;-72
2022/07/04 13:33:56;;;;;;;;;1.75;1.75;;;;;26.51;30.99;101612.91;5035396;28;45321;-72
2022/07/04 13:36:21;;;;;;;;;2.00;2.00;;;;;26.44;31.00;101605.41;5021236;28;46391;-74
2022/07/04 13:38:47;;;;;;;;;2.75;1.25;;;;;26.47;31.25;101605.97;5019662;28;45405;-73
2022/07/04 13:41:12;;;;;;;;;0.75;0.75;;;;;26.52;31.00;101605.53;5005231;28;45570;-74
2022/07/04 13:43:38;;;;;;;;;0.75;0.75;;;;;26.68;29.10;101613.97;5022042;28;45492;-74
2022/07/04 13:46:04;;;;;;;;;1.00;1.00;;;;;26.75;28.25;101606.81;5035431;28;46112;-73
2022/07/04 13:48:29;;;;;;;;;0.50;0.50;;;;;26.88;29.08;101603.72;5035553;28;45309;-74
2022/07/04 13:50:55;;;;;;;;;0.75;0.75;;;;;26.96;29.31;101606.59;5035711;28;45367;-74
2022/07/04 13:53:20;;;;;;;;;1.75;1.75;;;;;26.98;29.84;101612.78;5034983;28;45482;-75
2022/07/04 13:55:46;;;;;;;;;3.25;1.00;;;;;27.04;29.89;101601.19;5035112;28;45790;-73
2022/07/04 13:58:12;;;;;;;;;3.00;1.25;;;;;26.97;30.38;101586.28;5034686;28;45442;-73
2022/07/04 14:00:40;;;;;;;;;3.00;2.00;;;;;27.11;29.42;101605.91;5035284;28;45486;-75
2022/07/04 14:03:06;;;;;;;;;1.00;0.75;;;;;27.25;29.67;101603.59;5033971;28;45412;-74
2022/07/04 14:05:32;;;;;;;;;1.00;1.00;;;;;27.35;29.05;101597.00;5021904;28;45558;-75
2022/07/04 14:07:58;;;;;;;;;1.00;1.00;;;;;27.49;29.01;101593.66;5034450;28;45346;-75
2022/07/04 14:10:24;;;;;;;;;1.50;1.50;;;;;27.61;28.06;101597.06;5016393;28;45394;-72
2022/07/04 14:12:49;;;;;;;;;0.75;0.75;;;;;27.57;28.42;101575.50;5025490;28;45502;-74
2022/07/04 14:15:14;;;;;;;;;1.00;1.00;;;;;27.71;28.71;101592.34;5034882;28;46308;-75
2022/07/04 14:17:40;;;;;;;;;1.00;1.00;;;;;27.66;28.75;101602.09;5034686;28;45323;-72
2022/07/04 14:20:10;;;;;;;;;0.75;0.75;;;;;27.51;27.44;101571.47;5032741;28;45282;-72
2022/07/04 14:22:36;;;;;;;;;0.75;0.75;;;;;27.65;29.35;101594.84;5034809;28;45401;-72
2022/07/04 14:25:02;;;;;;;;;0.75;0.75;;;;;27.74;29.21;101582.84;5035054;28;46386;-75
2022/07/04 14:27:27;;;;;;;;;1.75;1.50;;;;;27.66;29.22;101585.56;5027095;28;45384;-73
2022/07/04 14:29:52;;;;;;;;;0.00;0.00;;;;;27.52;29.17;101583.34;5022430;28;45416;-74
2022/07/04 14:32:18;;;;;;;;;0.00;0.00;;;;;27.59;28.29;101578.97;5017410;28;45355;-74
2022/07/04 14:34:43;;;;;;;;;1.00;1.00;;;;;27.71;29.17;101577.69;5014125;28;45841;-75
2022/07/04 14:37:09;;;;;;;;;1.25;1.25;;;;;27.50;29.91;101573.34;5014637;28;45200;-75
2022/07/04 14:39:34;;;;;;;;;1.50;1.25;;;;;27.44;29.23;101573.13;5014553;28;45471;-74
2022/07/04 14:42:00;;;;;;;;;1.50;0.50;;;;;27.50;29.11;101558.72;5014357;28;45361;-75
2022/07/04 14:44:25;;;;;;;;;1.00;1.00;;;;;27.78;28.06;101571.38;5014220;28;45313;-75
2022/07/04 14:46:50;;;;;;;;;0.75;0.75;;;;;27.88;28.10;101574.03;5014798;28;45298;-74
2022/07/04 14:49:16;;;;;;;;;0.50;0.50;;;;;28.13;27.84;101569.50;5013835;28;45342;-74
2022/07/04 14:51:41;;;;;;;;;1.00;1.00;;;;;28.22;27.91;101546.50;5014786;28;45420;-75
2022/07/04 14:54:08;;;;;;;;;1.00;1.00;;;;;28.38;26.83;101565.88;5014370;28;45836;-75
2022/07/04 14:56:34;;;;;;;;;1.25;1.00;;;;;28.21;27.92;101566.81;4996395;28;45578;-74
2022/07/04 14:58:59;;;;;;;;;1.25;1.00;;;;;28.18;27.71;101558.88;5013713;28;45318;-77
2022/07/04 15:01:24;;;;;;;;;0.75;0.75;;;;;28.02;27.67;101562.38;5014010;28;45384;-77
2022/07/04 15:03:50;;;;;;;;;0.75;0.75;;;;;28.01;28.66;101557.03;5014238;28;46147;-74
2022/07/04 15:06:15;;;;;;;;;0.75;0.75;;;;;28.15;28.21;101549.03;5014386;28;45373;-77
2022/07/04 15:08:40;;;;;;;;;0.50;0.50;;;;;28.29;27.16;101542.03;5014200;28;45332;-78
2022/07/04 15:11:06;;;;;;;;;1.00;1.00;;;;;28.41;27.98;101557.25;5012869;28;45388;-76
2022/07/04 15:13:31;;;;;;;;;0.75;0.75;;;;;28.21;27.95;101544.75;5013715;28;45317;-77
2022/07/04 15:15:57;;;;;;;;;1.00;1.00;;;;;28.27;26.68;101534.97;5014388;28;45487;-75
2022/07/04 15:18:22;;;;;;;;;1.25;1.00;;;;;28.48;26.59;101541.78;5014688;28;45219;-77
2022/07/04 15:26:15;;;;;;;;;1.00;1.00;;;;;28.90;27.09;101527.06;5013812;28;45356;-77
2022/07/04 15:28:41;;;;;;;;;0.75;0.75;;;;;29.16;27.74;101538.84;5013967;28;45310;-76
2022/07/04 15:31:06;;;;;;;;;0.25;0.25;;;;;29.09;27.26;101525.88;5012833;28;45432;-75
2022/07/04 15:33:37;;;;;;;;;1.25;1.25;;;;;28.98;28.27;101529.84;5024829;28;45824;-76
2022/07/04 15:36:03;;;;;;;;;0.50;0.00;;;;;28.64;28.93;101524.41;5033579;28;45348;-77
2022/07/04 15:38:29;;;;;;;;;3.00;2.00;;;;;28.38;29.53;101540.19;5033985;28;45237;-78
2022/07/04 15:40:54;;;;;;;;;1.00;1.00;;;;;28.32;28.34;101538.09;5033282;28;45824;-76
2022/07/04 15:43:20;;;;;;;;;1.25;0.75;;;;;28.30;29.00;101534.63;5015236;28;47035;-77
2022/07/04 15:45:45;;;;;;;;;1.50;1.00;;;;;28.10;29.36;101536.75;5033378;28;45321;-77
2022/07/04 15:48:10;;;;;;;;;0.00;0.00;;;;;28.01;29.85;101532.22;5019285;28;45846;-77
2022/07/04 15:50:36;;;;;;;;;2.00;2.00;;;;;28.18;29.06;101525.78;5033538;28;45329;-77
2022/07/04 15:53:01;;;;;;;;;1.75;1.00;;;;;28.34;28.57;101525.84;5033367;28;45249;-77
2022/07/04 15:55:26;;;;;;;;;1.00;0.75;;;;;28.32;27.85;101519.66;5025835;28;45286;-76
2022/07/04 15:57:52;;;;;;;;;1.00;1.00;;;;;28.44;29.29;101531.22;5033366;28;45364;-77
2022/07/04 16:00:18;;;;;;;;;1.25;1.25;;;;;28.51;28.40;101521.25;5035717;28;45541;-76
2022/07/04 16:02:43;;;;;;;;;1.00;1.00;;;;;28.57;28.94;101515.94;5018984;28;46932;-75
2022/07/04 16:05:10;;;;;;;;;1.00;1.00;;;;;28.42;29.07;101519.50;5009699;28;45406;-77
2022/07/04 16:07:36;;;;;;;;;1.00;1.00;;;;;28.21;29.21;101519.94;5037032;28;45773;-77
2022/07/04 16:10:01;;;;;;;;;1.25;0.75;;;;;28.17;27.87;101524.06;5018069;28;45523;-76
2022/07/04 16:12:27;;;;;;;;;1.00;1.00;;;;;28.33;26.84;101520.53;5037042;28;46146;-77